sensor_id;sensor_type;location;lat;lon;timestamp;P1;durP1;ratioP1;P2;durP2;ratioP2
19509;SDS011;9896;42.486;26.506;2022-10-13T00:00:31;4.37;;;1.43;;
19509;SDS011;9896;42.486;26.506;2022-10-13T00:03:00;2.47;;;1.50;;
19509;SDS011;9896;42.486;26.506;2022-10-13T00:05:27;4.13;;;1.30;;
19509;SDS011;9896;42.486;26.506;2022-10-13T00:07:54;5.67;;;1.10;;
19509;SDS011;9896;42.486;26.506;2022-10-13T00:10:20;2.70;;;1.20;;
19509;SDS011;9896;42.486;26.506;2022-10-13T00:12:46;3.20;;;1.20;;
19509;SDS011;9896;42.486;26.506;2022-10-13T00:15:11;1.80;;;1.10;;
19509;SDS011;9896;42.486;26.506;2022-10-13T00:17:37;2.83;;;1.40;;
19509;SDS011;9896;42.486;26.506;2022-10-13T00:20:04;2.40;;;1.30;;
19509;SDS011;9896;42.486;26.506;2022-10-13T00:22:30;3.87;;;1.30;;
19509;SDS011;9896;42.486;26.506;2022-10-13T00:24:56;4.17;;;1.40;;
19509;SDS011;9896;42.486;26.506;2022-10-13T00:27:21;5.53;;;1.23;;
19509;SDS011;9896;42.486;26.506;2022-10-13T00:29:47;5.70;;;1.30;;
19509;SDS011;9896;42.486;26.506;2022-10-13T00:32:12;2.90;;;1.20;;
19509;SDS011;9896;42.486;26.506;2022-10-13T00:34:38;4.83;;;1.30;;
19509;SDS011;9896;42.486;26.506;2022-10-13T00:37:04;3.77;;;1.23;;
19509;SDS011;9896;42.486;26.506;2022-10-13T00:39:30;2.40;;;1.30;;
19509;SDS011;9896;42.486;26.506;2022-10-13T00:41:59;3.03;;;1.37;;
19509;SDS011;9896;42.486;26.506;2022-10-13T00:47:35;2.80;;;1.40;;
19509;SDS011;9896;42.486;26.506;2022-10-13T00:50:05;3.17;;;1.30;;
19509;SDS011;9896;42.486;26.506;2022-10-13T00:52:36;5.37;;;1.50;;
19509;SDS011;9896;42.486;26.506;2022-10-13T00:55:04;1.90;;;1.43;;
19509;SDS011;9896;42.486;26.506;2022-10-13T00:57:31;3.37;;;1.27;;
19509;SDS011;9896;42.486;26.506;2022-10-13T00:59:58;3.67;;;1.47;;
19509;SDS011;9896;42.486;26.506;2022-10-13T01:02:28;3.67;;;1.60;;
19509;SDS011;9896;42.486;26.506;2022-10-13T01:04:56;2.97;;;1.60;;
19509;SDS011;9896;42.486;26.506;2022-10-13T01:07:23;3.53;;;1.53;;
19509;SDS011;9896;42.486;26.506;2022-10-13T01:09:49;3.33;;;1.40;;
19509;SDS011;9896;42.486;26.506;2022-10-13T01:18:16;9.70;;;2.20;;
19509;SDS011;9896;42.486;26.506;2022-10-13T01:31:33;6.30;;;2.77;;
19509;SDS011;9896;42.486;26.506;2022-10-13T01:34:19;7.63;;;2.83;;
19509;SDS011;9896;42.486;26.506;2022-10-13T01:36:55;5.37;;;2.70;;
19509;SDS011;9896;42.486;26.506;2022-10-13T01:42:05;5.20;;;2.50;;
19509;SDS011;9896;42.486;26.506;2022-10-13T01:44:38;7.37;;;2.33;;
19509;SDS011;9896;42.486;26.506;2022-10-13T01:47:07;4.27;;;2.07;;
19509;SDS011;9896;42.486;26.506;2022-10-13T01:49:35;5.67;;;2.00;;
19509;SDS011;9896;42.486;26.506;2022-10-13T01:52:08;4.70;;;1.90;;
19509;SDS011;9896;42.486;26.506;2022-10-13T01:54:39;3.50;;;1.60;;
19509;SDS011;9896;42.486;26.506;2022-10-13T01:57:25;4.87;;;2.00;;
19509;SDS011;9896;42.486;26.506;2022-10-13T02:00:03;3.57;;;1.90;;
19509;SDS011;9896;42.486;26.506;2022-10-13T02:02:36;5.77;;;2.00;;
19509;SDS011;9896;42.486;26.506;2022-10-13T02:05:22;6.70;;;2.10;;
19509;SDS011;9896;42.486;26.506;2022-10-13T02:08:02;3.03;;;1.80;;
19509;SDS011;9896;42.486;26.506;2022-10-13T02:10:34;8.53;;;2.07;;
19509;SDS011;9896;42.486;26.506;2022-10-13T02:13:10;2.77;;;2.00;;
19509;SDS011;9896;42.486;26.506;2022-10-13T02:15:39;4.17;;;2.33;;
19509;SDS011;9896;42.486;26.506;2022-10-13T02:18:10;6.30;;;2.33;;
19509;SDS011;9896;42.486;26.506;2022-10-13T02:20:39;4.63;;;2.10;;
19509;SDS011;9896;42.486;26.506;2022-10-13T02:23:08;6.23;;;2.40;;
19509;SDS011;9896;42.486;26.506;2022-10-13T02:25:36;5.57;;;2.27;;
19509;SDS011;9896;42.486;26.506;2022-10-13T02:28:03;5.53;;;2.10;;
19509;SDS011;9896;42.486;26.506;2022-10-13T02:30:30;5.83;;;2.20;;
19509;SDS011;9896;42.486;26.506;2022-10-13T02:32:57;4.23;;;2.50;;
19509;SDS011;9896;42.486;26.506;2022-10-13T02:35:23;10.70;;;2.47;;
19509;SDS011;9896;42.486;26.506;2022-10-13T02:37:48;4.93;;;2.10;;
19509;SDS011;9896;42.486;26.506;2022-10-13T02:40:14;5.57;;;2.00;;
19509;SDS011;9896;42.486;26.506;2022-10-13T02:42:39;5.83;;;2.30;;
19509;SDS011;9896;42.486;26.506;2022-10-13T02:45:05;3.97;;;2.73;;
19509;SDS011;9896;42.486;26.506;2022-10-13T02:47:31;5.77;;;2.50;;
19509;SDS011;9896;42.486;26.506;2022-10-13T02:49:57;3.63;;;2.17;;
19509;SDS011;9896;42.486;26.506;2022-10-13T02:52:22;7.63;;;2.30;;
19509;SDS011;9896;42.486;26.506;2022-10-13T02:54:47;6.03;;;2.80;;
19509;SDS011;9896;42.486;26.506;2022-10-13T02:57:13;7.80;;;3.20;;
19509;SDS011;9896;42.486;26.506;2022-10-13T02:59:38;11.97;;;3.83;;
19509;SDS011;9896;42.486;26.506;2022-10-13T03:02:04;12.40;;;4.17;;
19509;SDS011;9896;42.486;26.506;2022-10-13T03:04:29;12.03;;;4.20;;
19509;SDS011;9896;42.486;26.506;2022-10-13T03:06:55;12.77;;;3.40;;
19509;SDS011;9896;42.486;26.506;2022-10-13T03:09:21;10.53;;;3.70;;
19509;SDS011;9896;42.486;26.506;2022-10-13T03:11:46;9.03;;;3.40;;
19509;SDS011;9896;42.486;26.506;2022-10-13T03:14:12;12.20;;;3.87;;
19509;SDS011;9896;42.486;26.506;2022-10-13T03:16:37;6.87;;;2.77;;
19509;SDS011;9896;42.486;26.506;2022-10-13T03:19:03;5.20;;;2.80;;
19509;SDS011;9896;42.486;26.506;2022-10-13T03:21:29;4.17;;;2.50;;
19509;SDS011;9896;42.486;26.506;2022-10-13T03:23:54;6.87;;;3.07;;
19509;SDS011;9896;42.486;26.506;2022-10-13T03:26:20;8.40;;;3.10;;
19509;SDS011;9896;42.486;26.506;2022-10-13T03:28:49;6.83;;;2.70;;
19509;SDS011;9896;42.486;26.506;2022-10-13T03:31:16;9.63;;;2.93;;
19509;SDS011;9896;42.486;26.506;2022-10-13T03:33:42;10.53;;;2.80;;
19509;SDS011;9896;42.486;26.506;2022-10-13T03:36:09;5.50;;;2.77;;
19509;SDS011;9896;42.486;26.506;2022-10-13T03:38:35;6.07;;;2.87;;
19509;SDS011;9896;42.486;26.506;2022-10-13T03:41:04;6.67;;;2.67;;
19509;SDS011;9896;42.486;26.506;2022-10-13T03:43:41;5.87;;;2.50;;
19509;SDS011;9896;42.486;26.506;2022-10-13T03:46:08;5.43;;;2.47;;
19509;SDS011;9896;42.486;26.506;2022-10-13T03:48:35;4.17;;;2.77;;
19509;SDS011;9896;42.486;26.506;2022-10-13T03:51:05;4.33;;;2.73;;
19509;SDS011;9896;42.486;26.506;2022-10-13T03:53:32;6.33;;;2.83;;
19509;SDS011;9896;42.486;26.506;2022-10-13T03:55:58;10.83;;;2.87;;
19509;SDS011;9896;42.486;26.506;2022-10-13T03:58:24;3.47;;;2.60;;
19509;SDS011;9896;42.486;26.506;2022-10-13T04:00:52;4.60;;;2.57;;
19509;SDS011;9896;42.486;26.506;2022-10-13T04:03:18;5.03;;;2.63;;
19509;SDS011;9896;42.486;26.506;2022-10-13T04:05:43;5.30;;;3.10;;
19509;SDS011;9896;42.486;26.506;2022-10-13T04:08:09;5.80;;;2.90;;
19509;SDS011;9896;42.486;26.506;2022-10-13T04:10:35;8.27;;;3.10;;
19509;SDS011;9896;42.486;26.506;2022-10-13T04:13:01;4.43;;;3.00;;
19509;SDS011;9896;42.486;26.506;2022-10-13T04:15:26;8.27;;;2.93;;
19509;SDS011;9896;42.486;26.506;2022-10-13T04:17:52;4.87;;;3.10;;
19509;SDS011;9896;42.486;26.506;2022-10-13T04:20:17;5.47;;;3.17;;
19509;SDS011;9896;42.486;26.506;2022-10-13T04:22:43;9.17;;;3.87;;
19509;SDS011;9896;42.486;26.506;2022-10-13T04:25:08;7.97;;;3.87;;
19509;SDS011;9896;42.486;26.506;2022-10-13T04:27:34;6.30;;;3.60;;
19509;SDS011;9896;42.486;26.506;2022-10-13T04:30:03;7.03;;;3.80;;
19509;SDS011;9896;42.486;26.506;2022-10-13T04:32:32;7.70;;;4.50;;
19509;SDS011;9896;42.486;26.506;2022-10-13T04:34:58;9.33;;;4.90;;
19509;SDS011;9896;42.486;26.506;2022-10-13T04:37:23;8.47;;;3.43;;
19509;SDS011;9896;42.486;26.506;2022-10-13T04:39:49;10.70;;;4.00;;
19509;SDS011;9896;42.486;26.506;2022-10-13T04:42:15;10.10;;;4.87;;
19509;SDS011;9896;42.486;26.506;2022-10-13T04:44:40;8.07;;;3.67;;
19509;SDS011;9896;42.486;26.506;2022-10-13T04:47:06;9.13;;;4.90;;
19509;SDS011;9896;42.486;26.506;2022-10-13T04:49:31;8.43;;;4.40;;
19509;SDS011;9896;42.486;26.506;2022-10-13T04:51:57;9.77;;;3.97;;
19509;SDS011;9896;42.486;26.506;2022-10-13T04:54:22;12.43;;;4.40;;
19509;SDS011;9896;42.486;26.506;2022-10-13T04:56:48;15.13;;;6.10;;
19509;SDS011;9896;42.486;26.506;2022-10-13T04:59:13;14.33;;;4.47;;
19509;SDS011;9896;42.486;26.506;2022-10-13T05:01:39;10.20;;;4.00;;
19509;SDS011;9896;42.486;26.506;2022-10-13T05:04:05;11.60;;;3.53;;
19509;SDS011;9896;42.486;26.506;2022-10-13T05:06:31;8.83;;;4.00;;
19509;SDS011;9896;42.486;26.506;2022-10-13T05:08:59;8.90;;;3.63;;
19509;SDS011;9896;42.486;26.506;2022-10-13T05:11:24;13.80;;;3.57;;
19509;SDS011;9896;42.486;26.506;2022-10-13T05:13:51;6.23;;;3.37;;
19509;SDS011;9896;42.486;26.506;2022-10-13T05:16:18;9.13;;;4.00;;
19509;SDS011;9896;42.486;26.506;2022-10-13T05:18:45;5.67;;;2.90;;
19509;SDS011;9896;42.486;26.506;2022-10-13T05:21:12;5.90;;;3.50;;
19509;SDS011;9896;42.486;26.506;2022-10-13T05:23:39;6.60;;;3.73;;
19509;SDS011;9896;42.486;26.506;2022-10-13T05:26:08;9.33;;;3.33;;
19509;SDS011;9896;42.486;26.506;2022-10-13T05:28:35;3.40;;;2.67;;
19509;SDS011;9896;42.486;26.506;2022-10-13T05:31:08;6.47;;;3.23;;
19509;SDS011;9896;42.486;26.506;2022-10-13T05:33:41;8.27;;;3.07;;
19509;SDS011;9896;42.486;26.506;2022-10-13T05:36:11;5.13;;;3.00;;
19509;SDS011;9896;42.486;26.506;2022-10-13T05:38:42;6.70;;;3.40;;
19509;SDS011;9896;42.486;26.506;2022-10-13T05:41:08;10.53;;;3.40;;
19509;SDS011;9896;42.486;26.506;2022-10-13T05:43:36;6.13;;;3.37;;
19509;SDS011;9896;42.486;26.506;2022-10-13T05:46:03;13.27;;;3.50;;
19509;SDS011;9896;42.486;26.506;2022-10-13T05:48:29;9.33;;;3.97;;
19509;SDS011;9896;42.486;26.506;2022-10-13T05:50:56;8.23;;;3.37;;
19509;SDS011;9896;42.486;26.506;2022-10-13T05:53:24;10.97;;;4.00;;
19509;SDS011;9896;42.486;26.506;2022-10-13T05:55:53;7.40;;;3.60;;
19509;SDS011;9896;42.486;26.506;2022-10-13T05:58:22;12.63;;;3.93;;
19509;SDS011;9896;42.486;26.506;2022-10-13T06:00:48;10.90;;;4.27;;
19509;SDS011;9896;42.486;26.506;2022-10-13T06:03:16;10.37;;;4.13;;
19509;SDS011;9896;42.486;26.506;2022-10-13T06:05:46;4.10;;;3.03;;
19509;SDS011;9896;42.486;26.506;2022-10-13T06:08:12;4.23;;;3.20;;
19509;SDS011;9896;42.486;26.506;2022-10-13T06:10:39;7.03;;;3.50;;
19509;SDS011;9896;42.486;26.506;2022-10-13T06:13:06;5.87;;;3.43;;
19509;SDS011;9896;42.486;26.506;2022-10-13T06:15:31;6.63;;;3.60;;
19509;SDS011;9896;42.486;26.506;2022-10-13T06:17:57;9.97;;;3.47;;
19509;SDS011;9896;42.486;26.506;2022-10-13T06:20:23;11.27;;;4.17;;
19509;SDS011;9896;42.486;26.506;2022-10-13T06:22:48;9.57;;;3.63;;
19509;SDS011;9896;42.486;26.506;2022-10-13T06:25:15;7.87;;;3.47;;
19509;SDS011;9896;42.486;26.506;2022-10-13T06:27:41;10.40;;;3.70;;
19509;SDS011;9896;42.486;26.506;2022-10-13T06:30:07;9.33;;;3.60;;
19509;SDS011;9896;42.486;26.506;2022-10-13T06:32:33;11.33;;;4.23;;
19509;SDS011;9896;42.486;26.506;2022-10-13T06:34:58;11.10;;;3.70;;
19509;SDS011;9896;42.486;26.506;2022-10-13T06:37:24;9.40;;;3.67;;
19509;SDS011;9896;42.486;26.506;2022-10-13T06:39:49;7.73;;;3.80;;
19509;SDS011;9896;42.486;26.506;2022-10-13T06:42:15;8.00;;;3.40;;
19509;SDS011;9896;42.486;26.506;2022-10-13T06:44:40;8.80;;;3.43;;
19509;SDS011;9896;42.486;26.506;2022-10-13T06:47:06;6.10;;;3.03;;
19509;SDS011;9896;42.486;26.506;2022-10-13T06:49:32;8.77;;;3.40;;
19509;SDS011;9896;42.486;26.506;2022-10-13T06:51:57;10.63;;;4.03;;
19509;SDS011;9896;42.486;26.506;2022-10-13T06:54:23;10.00;;;3.63;;
19509;SDS011;9896;42.486;26.506;2022-10-13T06:56:49;11.07;;;3.60;;
19509;SDS011;9896;42.486;26.506;2022-10-13T06:59:15;6.27;;;3.50;;
19509;SDS011;9896;42.486;26.506;2022-10-13T07:01:40;12.10;;;3.80;;
19509;SDS011;9896;42.486;26.506;2022-10-13T07:04:06;11.53;;;5.73;;
19509;SDS011;9896;42.486;26.506;2022-10-13T07:06:31;9.83;;;3.90;;
19509;SDS011;9896;42.486;26.506;2022-10-13T07:08:57;9.77;;;3.00;;
19509;SDS011;9896;42.486;26.506;2022-10-13T07:11:22;11.97;;;2.80;;
19509;SDS011;9896;42.486;26.506;2022-10-13T07:13:48;10.10;;;3.07;;
19509;SDS011;9896;42.486;26.506;2022-10-13T07:16:14;9.13;;;3.53;;
19509;SDS011;9896;42.486;26.506;2022-10-13T07:18:39;6.20;;;3.40;;
19509;SDS011;9896;42.486;26.506;2022-10-13T07:21:05;9.40;;;3.50;;
19509;SDS011;9896;42.486;26.506;2022-10-13T07:23:31;6.47;;;3.57;;
19509;SDS011;9896;42.486;26.506;2022-10-13T07:25:56;10.67;;;3.00;;
19509;SDS011;9896;42.486;26.506;2022-10-13T07:28:25;5.27;;;2.90;;
19509;SDS011;9896;42.486;26.506;2022-10-13T07:30:51;7.13;;;3.00;;
19509;SDS011;9896;42.486;26.506;2022-10-13T07:33:17;9.17;;;2.80;;
19509;SDS011;9896;42.486;26.506;2022-10-13T07:35:43;4.53;;;2.70;;
19509;SDS011;9896;42.486;26.506;2022-10-13T07:38:08;6.03;;;2.77;;
19509;SDS011;9896;42.486;26.506;2022-10-13T07:40:34;9.93;;;3.10;;
19509;SDS011;9896;42.486;26.506;2022-10-13T07:42:59;6.93;;;2.93;;
19509;SDS011;9896;42.486;26.506;2022-10-13T07:45:26;8.90;;;4.07;;
19509;SDS011;9896;42.486;26.506;2022-10-13T07:47:52;5.03;;;3.17;;
19509;SDS011;9896;42.486;26.506;2022-10-13T07:50:17;11.97;;;2.80;;
19509;SDS011;9896;42.486;26.506;2022-10-13T07:52:43;3.77;;;2.53;;
19509;SDS011;9896;42.486;26.506;2022-10-13T07:55:09;6.50;;;2.77;;
19509;SDS011;9896;42.486;26.506;2022-10-13T07:57:34;8.27;;;2.10;;
19509;SDS011;9896;42.486;26.506;2022-10-13T08:00:00;7.67;;;2.80;;
19509;SDS011;9896;42.486;26.506;2022-10-13T08:02:25;5.07;;;1.77;;
19509;SDS011;9896;42.486;26.506;2022-10-13T08:04:51;9.57;;;2.50;;
19509;SDS011;9896;42.486;26.506;2022-10-13T08:07:16;9.13;;;2.30;;
19509;SDS011;9896;42.486;26.506;2022-10-13T08:09:42;7.13;;;2.27;;
19509;SDS011;9896;42.486;26.506;2022-10-13T08:12:08;2.20;;;1.80;;
19509;SDS011;9896;42.486;26.506;2022-10-13T08:14:34;4.50;;;2.00;;
19509;SDS011;9896;42.486;26.506;2022-10-13T08:17:00;7.37;;;2.10;;
19509;SDS011;9896;42.486;26.506;2022-10-13T08:19:26;7.93;;;2.50;;
19509;SDS011;9896;42.486;26.506;2022-10-13T08:21:52;8.23;;;2.00;;
19509;SDS011;9896;42.486;26.506;2022-10-13T08:24:18;6.33;;;1.80;;
19509;SDS011;9896;42.486;26.506;2022-10-13T08:26:46;5.40;;;1.57;;
19509;SDS011;9896;42.486;26.506;2022-10-13T08:29:12;3.57;;;1.73;;
19509;SDS011;9896;42.486;26.506;2022-10-13T08:31:38;2.90;;;2.10;;
19509;SDS011;9896;42.486;26.506;2022-10-13T08:34:04;4.07;;;1.80;;
19509;SDS011;9896;42.486;26.506;2022-10-13T08:36:29;3.83;;;1.90;;
19509;SDS011;9896;42.486;26.506;2022-10-13T08:38:55;5.77;;;2.27;;
19509;SDS011;9896;42.486;26.506;2022-10-13T08:41:27;3.47;;;1.90;;
19509;SDS011;9896;42.486;26.506;2022-10-13T08:44:00;5.67;;;1.47;;
19509;SDS011;9896;42.486;26.506;2022-10-13T08:46:56;4.63;;;1.70;;
19509;SDS011;9896;42.486;26.506;2022-10-13T08:49:33;4.20;;;2.53;;
19509;SDS011;9896;42.486;26.506;2022-10-13T08:52:02;4.77;;;3.10;;
19509;SDS011;9896;42.486;26.506;2022-10-13T08:54:28;4.30;;;1.80;;
19509;SDS011;9896;42.486;26.506;2022-10-13T08:56:54;3.97;;;1.40;;
19509;SDS011;9896;42.486;26.506;2022-10-13T08:59:20;5.67;;;1.37;;
19509;SDS011;9896;42.486;26.506;2022-10-13T09:01:46;4.80;;;1.50;;
19509;SDS011;9896;42.486;26.506;2022-10-13T09:09:53;5.10;;;2.50;;
19509;SDS011;9896;42.486;26.506;2022-10-13T09:12:19;4.17;;;1.53;;
19509;SDS011;9896;42.486;26.506;2022-10-13T09:14:56;3.30;;;1.63;;
19509;SDS011;9896;42.486;26.506;2022-10-13T09:17:25;5.53;;;1.60;;
19509;SDS011;9896;42.486;26.506;2022-10-13T09:20:03;1.73;;;1.10;;
19509;SDS011;9896;42.486;26.506;2022-10-13T09:22:42;10.03;;;7.00;;
19509;SDS011;9896;42.486;26.506;2022-10-13T09:27:43;1.97;;;1.30;;
19509;SDS011;9896;42.486;26.506;2022-10-13T09:35:34;3.37;;;1.17;;
19509;SDS011;9896;42.486;26.506;2022-10-13T09:38:01;2.30;;;1.60;;
19509;SDS011;9896;42.486;26.506;2022-10-13T09:40:31;2.47;;;1.37;;
19509;SDS011;9896;42.486;26.506;2022-10-13T09:42:58;6.20;;;1.80;;
19509;SDS011;9896;42.486;26.506;2022-10-13T09:45:26;3.93;;;1.43;;
19509;SDS011;9896;42.486;26.506;2022-10-13T09:47:58;2.83;;;1.50;;
19509;SDS011;9896;42.486;26.506;2022-10-13T09:50:29;3.83;;;1.50;;
19509;SDS011;9896;42.486;26.506;2022-10-13T09:53:16;5.50;;;1.30;;
19509;SDS011;9896;42.486;26.506;2022-10-13T09:55:44;3.10;;;2.13;;
19509;SDS011;9896;42.486;26.506;2022-10-13T09:58:27;6.27;;;3.80;;
19509;SDS011;9896;42.486;26.506;2022-10-13T10:00:58;8.30;;;1.43;;
19509;SDS011;9896;42.486;26.506;2022-10-13T10:06:02;3.30;;;1.10;;
19509;SDS011;9896;42.486;26.506;2022-10-13T10:11:19;2.37;;;1.43;;
19509;SDS011;9896;42.486;26.506;2022-10-13T10:13:59;4.57;;;1.30;;
19509;SDS011;9896;42.486;26.506;2022-10-13T10:16:41;4.17;;;1.43;;
19509;SDS011;9896;42.486;26.506;2022-10-13T10:19:16;4.73;;;1.50;;
19509;SDS011;9896;42.486;26.506;2022-10-13T10:26:46;4.80;;;2.00;;
19509;SDS011;9896;42.486;26.506;2022-10-13T10:35:01;13.83;;;2.00;;
19509;SDS011;9896;42.486;26.506;2022-10-13T10:45:38;3.27;;;1.40;;
19509;SDS011;9896;42.486;26.506;2022-10-13T10:50:44;4.77;;;1.60;;
19509;SDS011;9896;42.486;26.506;2022-10-13T10:58:54;6.23;;;2.77;;
19509;SDS011;9896;42.486;26.506;2022-10-13T11:06:56;5.13;;;1.50;;
19509;SDS011;9896;42.486;26.506;2022-10-13T11:14:45;3.87;;;1.80;;
19509;SDS011;9896;42.486;26.506;2022-10-13T11:17:30;3.90;;;1.60;;
19509;SDS011;9896;42.486;26.506;2022-10-13T11:19:57;11.13;;;1.97;;
19509;SDS011;9896;42.486;26.506;2022-10-13T11:22:30;6.40;;;1.33;;
19509;SDS011;9896;42.486;26.506;2022-10-13T11:25:00;4.63;;;1.50;;
19509;SDS011;9896;42.486;26.506;2022-10-13T11:27:48;3.47;;;1.63;;
19509;SDS011;9896;42.486;26.506;2022-10-13T11:44:48;2.77;;;1.20;;
19509;SDS011;9896;42.486;26.506;2022-10-13T11:50:36;2.80;;;1.40;;
19509;SDS011;9896;42.486;26.506;2022-10-13T11:55:42;3.87;;;1.60;;
19509;SDS011;9896;42.486;26.506;2022-10-13T11:58:22;2.40;;;1.70;;
19509;SDS011;9896;42.486;26.506;2022-10-13T12:01:02;2.73;;;1.33;;
19509;SDS011;9896;42.486;26.506;2022-10-13T12:03:34;3.00;;;1.50;;
19509;SDS011;9896;42.486;26.506;2022-10-13T12:06:05;2.20;;;1.20;;
19509;SDS011;9896;42.486;26.506;2022-10-13T12:08:47;5.47;;;1.40;;
19509;SDS011;9896;42.486;26.506;2022-10-13T12:11:25;3.97;;;1.30;;
19509;SDS011;9896;42.486;26.506;2022-10-13T12:13:52;4.27;;;1.50;;
19509;SDS011;9896;42.486;26.506;2022-10-13T12:16:18;2.83;;;1.20;;
19509;SDS011;9896;42.486;26.506;2022-10-13T12:18:45;3.93;;;1.30;;
19509;SDS011;9896;42.486;26.506;2022-10-13T12:21:15;5.30;;;1.50;;
19509;SDS011;9896;42.486;26.506;2022-10-13T12:23:44;2.07;;;1.00;;
19509;SDS011;9896;42.486;26.506;2022-10-13T12:26:18;4.80;;;0.90;;
19509;SDS011;9896;42.486;26.506;2022-10-13T12:28:53;2.07;;;1.20;;
19509;SDS011;9896;42.486;26.506;2022-10-13T12:31:20;3.53;;;1.47;;
19509;SDS011;9896;42.486;26.506;2022-10-13T12:33:57;3.20;;;1.20;;
19509;SDS011;9896;42.486;26.506;2022-10-13T12:38:56;1.13;;;0.80;;
19509;SDS011;9896;42.486;26.506;2022-10-13T12:41:43;5.20;;;1.43;;
19509;SDS011;9896;42.486;26.506;2022-10-13T12:44:15;4.03;;;1.07;;
19509;SDS011;9896;42.486;26.506;2022-10-13T12:46:44;5.00;;;1.30;;
19509;SDS011;9896;42.486;26.506;2022-10-13T12:49:40;4.77;;;1.27;;
19509;SDS011;9896;42.486;26.506;2022-10-13T12:52:15;2.30;;;1.00;;
19509;SDS011;9896;42.486;26.506;2022-10-13T12:54:53;2.70;;;1.03;;
19509;SDS011;9896;42.486;26.506;2022-10-13T12:57:29;2.60;;;1.00;;
19509;SDS011;9896;42.486;26.506;2022-10-13T13:05:37;3.73;;;1.20;;
19509;SDS011;9896;42.486;26.506;2022-10-13T13:10:54;3.10;;;1.03;;
19509;SDS011;9896;42.486;26.506;2022-10-13T13:13:21;1.23;;;0.90;;
19509;SDS011;9896;42.486;26.506;2022-10-13T13:15:48;4.23;;;1.00;;
19509;SDS011;9896;42.486;26.506;2022-10-13T13:18:21;1.13;;;0.97;;
19509;SDS011;9896;42.486;26.506;2022-10-13T13:21:00;6.30;;;1.27;;
19509;SDS011;9896;42.486;26.506;2022-10-13T13:23:28;6.37;;;1.90;;
19509;SDS011;9896;42.486;26.506;2022-10-13T13:28:37;5.60;;;1.45;;
19509;SDS011;9896;42.486;26.506;2022-10-13T13:31:15;3.87;;;0.90;;
19509;SDS011;9896;42.486;26.506;2022-10-13T13:33:42;2.63;;;1.40;;
19509;SDS011;9896;42.486;26.506;2022-10-13T13:36:17;2.97;;;1.27;;
19509;SDS011;9896;42.486;26.506;2022-10-13T13:38:44;3.63;;;1.70;;
19509;SDS011;9896;42.486;26.506;2022-10-13T13:41:10;3.57;;;1.40;;
19509;SDS011;9896;42.486;26.506;2022-10-13T13:43:36;3.23;;;1.40;;
19509;SDS011;9896;42.486;26.506;2022-10-13T13:46:02;2.50;;;1.50;;
19509;SDS011;9896;42.486;26.506;2022-10-13T13:48:28;1.90;;;1.33;;
19509;SDS011;9896;42.486;26.506;2022-10-13T13:50:54;1.93;;;1.30;;
19509;SDS011;9896;42.486;26.506;2022-10-13T13:53:19;5.07;;;1.70;;
19509;SDS011;9896;42.486;26.506;2022-10-13T13:55:45;5.13;;;1.60;;
19509;SDS011;9896;42.486;26.506;2022-10-13T13:58:11;4.87;;;1.13;;
19509;SDS011;9896;42.486;26.506;2022-10-13T14:00:37;1.30;;;1.00;;
19509;SDS011;9896;42.486;26.506;2022-10-13T14:03:02;4.77;;;1.20;;
19509;SDS011;9896;42.486;26.506;2022-10-13T14:05:31;4.70;;;1.50;;
19509;SDS011;9896;42.486;26.506;2022-10-13T14:07:56;5.53;;;1.33;;
19509;SDS011;9896;42.486;26.506;2022-10-13T14:10:23;3.93;;;1.30;;
19509;SDS011;9896;42.486;26.506;2022-10-13T14:12:50;5.03;;;1.27;;
19509;SDS011;9896;42.486;26.506;2022-10-13T14:15:16;4.13;;;1.10;;
19509;SDS011;9896;42.486;26.506;2022-10-13T14:17:42;4.70;;;2.67;;
19509;SDS011;9896;42.486;26.506;2022-10-13T14:20:07;7.13;;;2.77;;
19509;SDS011;9896;42.486;26.506;2022-10-13T14:22:35;2.20;;;1.10;;
19509;SDS011;9896;42.486;26.506;2022-10-13T14:25:01;5.67;;;1.60;;
19509;SDS011;9896;42.486;26.506;2022-10-13T14:27:26;2.47;;;1.37;;
19509;SDS011;9896;42.486;26.506;2022-10-13T14:29:52;3.20;;;1.40;;
19509;SDS011;9896;42.486;26.506;2022-10-13T14:32:17;7.30;;;1.80;;
19509;SDS011;9896;42.486;26.506;2022-10-13T14:34:43;5.40;;;2.00;;
19509;SDS011;9896;42.486;26.506;2022-10-13T14:37:08;2.77;;;1.20;;
19509;SDS011;9896;42.486;26.506;2022-10-13T14:39:34;6.80;;;1.80;;
19509;SDS011;9896;42.486;26.506;2022-10-13T14:41:59;3.87;;;1.20;;
19509;SDS011;9896;42.486;26.506;2022-10-13T14:44:25;7.73;;;1.50;;
19509;SDS011;9896;42.486;26.506;2022-10-13T14:46:50;5.07;;;1.97;;
19509;SDS011;9896;42.486;26.506;2022-10-13T14:49:16;6.13;;;3.90;;
19509;SDS011;9896;42.486;26.506;2022-10-13T14:51:41;5.80;;;1.53;;
19509;SDS011;9896;42.486;26.506;2022-10-13T14:54:07;4.23;;;1.20;;
19509;SDS011;9896;42.486;26.506;2022-10-13T14:56:32;4.60;;;1.60;;
19509;SDS011;9896;42.486;26.506;2022-10-13T14:58:59;2.90;;;1.30;;
19509;SDS011;9896;42.486;26.506;2022-10-13T15:01:26;3.77;;;2.07;;
19509;SDS011;9896;42.486;26.506;2022-10-13T15:03:52;3.37;;;1.50;;
19509;SDS011;9896;42.486;26.506;2022-10-13T15:06:22;7.63;;;1.60;;
19509;SDS011;9896;42.486;26.506;2022-10-13T15:08:49;7.70;;;1.53;;
19509;SDS011;9896;42.486;26.506;2022-10-13T15:11:17;3.93;;;1.40;;
19509;SDS011;9896;42.486;26.506;2022-10-13T15:13:44;1.93;;;1.10;;
19509;SDS011;9896;42.486;26.506;2022-10-13T15:16:17;6.10;;;1.40;;
19509;SDS011;9896;42.486;26.506;2022-10-13T15:18:45;4.47;;;1.10;;
19509;SDS011;9896;42.486;26.506;2022-10-13T15:21:10;5.20;;;1.50;;
19509;SDS011;9896;42.486;26.506;2022-10-13T15:23:36;5.10;;;1.40;;
19509;SDS011;9896;42.486;26.506;2022-10-13T15:26:02;6.03;;;1.40;;
19509;SDS011;9896;42.486;26.506;2022-10-13T15:28:35;6.93;;;1.47;;
19509;SDS011;9896;42.486;26.506;2022-10-13T15:31:05;2.33;;;1.53;;
19509;SDS011;9896;42.486;26.506;2022-10-13T15:33:31;3.73;;;1.80;;
19509;SDS011;9896;42.486;26.506;2022-10-13T15:35:57;2.77;;;2.37;;
19509;SDS011;9896;42.486;26.506;2022-10-13T15:38:23;2.87;;;1.83;;
19509;SDS011;9896;42.486;26.506;2022-10-13T15:40:48;2.57;;;1.00;;
19509;SDS011;9896;42.486;26.506;2022-10-13T15:43:14;3.57;;;1.30;;
19509;SDS011;9896;42.486;26.506;2022-10-13T15:45:40;4.97;;;1.33;;
19509;SDS011;9896;42.486;26.506;2022-10-13T15:48:06;2.20;;;1.20;;
19509;SDS011;9896;42.486;26.506;2022-10-13T15:50:34;4.53;;;1.50;;
19509;SDS011;9896;42.486;26.506;2022-10-13T15:53:03;3.63;;;1.37;;
19509;SDS011;9896;42.486;26.506;2022-10-13T15:55:29;3.07;;;1.23;;
19509;SDS011;9896;42.486;26.506;2022-10-13T15:57:54;5.40;;;1.57;;
19509;SDS011;9896;42.486;26.506;2022-10-13T16:00:20;5.50;;;1.33;;
19509;SDS011;9896;42.486;26.506;2022-10-13T16:02:47;1.63;;;1.20;;
19509;SDS011;9896;42.486;26.506;2022-10-13T16:05:15;1.93;;;1.10;;
19509;SDS011;9896;42.486;26.506;2022-10-13T16:07:41;4.37;;;1.30;;
19509;SDS011;9896;42.486;26.506;2022-10-13T16:10:07;3.67;;;1.50;;
19509;SDS011;9896;42.486;26.506;2022-10-13T16:12:34;4.90;;;1.33;;
19509;SDS011;9896;42.486;26.506;2022-10-13T16:14:59;6.83;;;1.90;;
19509;SDS011;9896;42.486;26.506;2022-10-13T16:17:25;7.70;;;2.37;;
19509;SDS011;9896;42.486;26.506;2022-10-13T16:19:50;7.40;;;1.70;;
19509;SDS011;9896;42.486;26.506;2022-10-13T16:22:16;5.57;;;1.83;;
19509;SDS011;9896;42.486;26.506;2022-10-13T16:24:44;5.10;;;1.67;;
19509;SDS011;9896;42.486;26.506;2022-10-13T16:27:20;3.23;;;1.70;;
19509;SDS011;9896;42.486;26.506;2022-10-13T16:29:46;6.77;;;2.70;;
19509;SDS011;9896;42.486;26.506;2022-10-13T16:32:11;7.87;;;2.73;;
19509;SDS011;9896;42.486;26.506;2022-10-13T16:34:37;4.90;;;1.90;;
19509;SDS011;9896;42.486;26.506;2022-10-13T16:37:03;15.43;;;3.97;;
19509;SDS011;9896;42.486;26.506;2022-10-13T16:39:28;4.77;;;1.90;;
19509;SDS011;9896;42.486;26.506;2022-10-13T16:41:54;4.47;;;2.17;;
19509;SDS011;9896;42.486;26.506;2022-10-13T16:44:19;6.00;;;1.97;;